Latest Weather Observations for Nhill Aerodrome

IDV60801

Issued at 1:03 pm EDT Tuesday 20 February 2018 (issued every 30 minutes, with the page automatically refreshed every 10 minutes)

About weather observations | Map of weather stations | Latest weather observations for VIC | Other Formats
Station Details ID: 078015 Name: NHILL AERODROME Lat: -36.31 Lon: 141.65 Height: 138.9 m
Data from the previous 72 hours. | See also: Recent months at Nhill Aerodrome
Date/Time
EDT
Temp
°C
App
Temp
°C
Dew
Point
°C
Rel
Hum
%
Delta-T
°C
Wind Press
QNH
hPa
Press
MSL
hPa
Rain since
9am
mm
Dir  Spd
km/h
Gust
km/h
Spd
kts
Gust
kts
20/01:00pm 30.3 26.3 11.8 32 10.8 ENE 24 33 13 18 1014.5 1013.9 0.0
20/12:30pm 29.3 24.7 12.3 35 10.0 ENE 28 41 15 22 1014.7 1014.1 0.0
20/12:00pm 28.3 23.5 11.8 36 9.6 ENE 28 41 15 22 1015.1 1014.5 0.0
20/11:30am 27.3 22.1 11.7 37 9.0 ENE 30 44 16 24 1015.4 1014.9 0.0
20/11:00am 25.7 20.7 12.2 43 7.8 NE 30 44 16 24 1015.6 1015.1 0.0
20/10:30am 24.5 18.4 11.8 45 7.2 ENE 35 48 19 26 1015.6 1015.1 0.0
20/10:00am 23.0 16.9 11.7 49 6.4 ENE 35 48 19 26 1015.7 1015.2 0.0
20/09:30am 22.0 16.5 11.7 52 5.8 ENE 32 39 17 21 1015.7 1015.2 0.0
20/09:00am 20.4 14.8 11.6 57 4.9 E 32 41 17 22 1015.5 1015.0 0.0
20/08:30am 19.1 13.6 11.7 62 4.1 E 32 43 17 23 1015.1 1014.5 0.0
20/08:00am 17.7 12.1 11.5 67 3.4 E 32 41 17 22 1014.8 1014.2 0.0
20/07:30am 17.1 11.9 11.6 70 3.0 E 30 39 16 21 1014.7 1014.1 0.0
20/07:00am 16.9 11.7 11.6 71 2.9 E 30 35 16 19 1014.4 1013.8 0.0
20/06:30am 16.8 12.0 11.7 72 2.8 E 28 33 15 18 1014.3 1013.7 0.0
20/06:00am 16.8 12.5 11.9 73 2.7 E 26 33 14 18 1014.2 1013.6 0.0
20/05:30am 16.9 13.0 12.0 73 2.7 E 24 28 13 15 1014.1 1013.5 0.0
20/05:00am 17.2 13.3 12.1 72 2.8 ESE 24 30 13 16 1014.1 1013.5 0.0
20/04:30am 16.9 13.7 12.0 73 2.7 ESE 20 26 11 14 1014.1 1013.5 0.0
20/04:00am 17.3 14.2 12.2 72 2.8 SE 20 26 11 14 1014.3 1013.7 0.0
20/03:30am 17.5 14.6 12.4 72 2.8 SE 19 24 10 13 1014.5 1013.9 0.0
20/03:00am 17.8 14.8 12.5 71 3.0 SE 20 26 11 14 1014.7 1014.1 0.0
20/02:30am 18.1 15.7 12.5 70 3.1 SE 17 26 9 14 1014.9 1014.3 0.0
20/02:00am 18.3 15.3 12.5 69 3.2 SE 20 28 11 15 1015.0 1014.4 0.0
20/01:30am 18.5 15.7 12.7 69 3.3 SE 19 26 10 14 1014.8 1014.2 0.0
20/01:00am 18.8 16.1 12.8 68 3.4 SE 19 24 10 13 1014.9 1014.3 0.0
20/12:30am 19.0 15.7 12.7 67 3.6 SE 22 28 12 15 1014.7 1014.1 0.0
20/12:00am 19.4 16.1 12.9 66 3.7 SE 22 32 12 17 1014.5 1013.9 0.0
 
Date/Time
EDT
Temp
°C
App
Temp
°C
Dew
Point
°C
Rel
Hum
%
Delta-T
°C
Wind Press
QNH
hPa
Press
MSL
hPa
Rain since
9am
mm
Dir  Spd
km/h
Gust
km/h
Spd
kts
Gust
kts
19/11:30pm 19.8 15.4 12.8 64 4.0 SE 28 33 15 18 1014.3 1013.7 0.0
19/11:00pm 20.3 15.5 12.8 62 4.3 SE 30 43 16 23 1014.2 1013.6 0.0
19/10:30pm 20.9 16.8 12.8 60 4.6 SE 26 33 14 18 1013.9 1013.3 0.0
19/10:00pm 21.4 17.3 12.8 58 4.9 SE 26 33 14 18 1013.7 1013.1 0.0
19/09:30pm 21.8 18.1 12.6 56 5.3 SE 24 35 13 19 1013.4 1012.8 0.0
19/09:00pm 22.4 17.5 12.6 54 5.6 SE 30 39 16 21 1012.9 1012.4 0.0
19/08:30pm 23.2 18.6 12.2 50 6.3 SE 28 41 15 22 1012.7 1012.2 0.0
19/08:00pm 24.4 18.9 12.4 47 6.9 SE 33 43 18 23 1012.5 1012.0 0.0
19/07:30pm 25.5 19.4 11.7 42 7.9 ESE 35 48 19 26 1012.1 1011.6 0.0
19/07:00pm 26.7 19.9 10.8 37 9.0 ESE 37 48 20 26 1011.9 1011.4 0.0
19/06:30pm 28.0 22.4 10.2 33 10.1 SE 30 46 16 25 1011.9 1011.4 0.0
19/06:00pm 28.9 23.3 10.1 31 10.7 SSE 30 48 16 26 1011.9 1011.4 0.0
19/05:43pm 28.9 23.3 10.1 31 10.7 SE 30 48 16 26 1011.7 1011.2 0.0
19/05:30pm 28.2 23.0 10.4 33 10.1 SE 28 39 15 21 1011.7 1011.2 0.0
19/05:00pm 28.2 23.0 10.4 33 10.1 SE 28 41 15 22 1011.9 1011.4 0.0
19/04:30pm 27.7 22.3 10.9 35 9.6 SSE 30 43 16 23 1012.2 1011.7 0.0
19/04:00pm 27.2 21.3 10.4 35 9.5 SSE 32 43 17 23 1012.7 1012.2 0.0
19/03:47pm 27.0 21.5 10.7 36 9.2 SSE 30 48 16 26 1012.8 1012.3 0.0
19/03:30pm 26.6 20.7 10.3 36 9.2 S 32 48 17 26 1013.2 1012.6 0.0
19/03:03pm 27.8 22.8 10.9 35 9.7 SSE 28 46 15 25 1013.2 1012.6 0.0
19/03:00pm 27.5 22.5 11.1 36 9.4 SSE 28 41 15 22 1013.3 1012.7 0.0
19/02:30pm 27.5 22.4 10.7 35 9.5 SSE 28 46 15 25 1013.4 1012.8 0.0
19/02:25pm 28.1 23.2 11.2 35 9.7 SSE 28 46 15 25 1013.5 1012.9 0.0
19/02:00pm 26.8 22.3 11.3 38 8.9 SSE 26 39 14 21 1013.6 1013.0 0.0
19/01:30pm 26.9 22.4 11.4 38 8.9 SE 26 43 14 23 1013.9 1013.3 0.0
19/01:00pm 26.3 22.6 11.6 40 8.4 SSE 22 33 12 18 1014.0 1013.4 0.0
19/12:30pm 24.5 20.2 12.1 46 7.1 SSE 26 39 14 21 1014.3 1013.7 0.0
19/12:00pm 24.7 20.9 12.3 46 7.1 SSE 24 35 13 19 1014.5 1013.9 0.0
19/11:30am 23.4 19.1 12.1 49 6.4 SE 26 43 14 23 1014.7 1014.1 0.0
19/11:00am 23.4 19.2 12.4 50 6.3 SE 26 41 14 22 1014.9 1014.3 0.0
19/10:30am 22.6 17.7 12.5 53 5.8 SE 30 37 16 20 1014.9 1014.3 0.0
19/10:00am 21.7 17.3 12.8 57 5.1 SE 28 39 15 21 1014.9 1014.3 0.0
19/09:30am 20.9 16.6 13.1 61 4.5 SE 28 43 15 23 1014.7 1014.1 0.0
19/09:00am 19.3 16.2 13.3 68 3.4 SSE 22 32 12 17 1014.7 1014.1 0.0
19/08:30am 17.4 13.9 13.5 78 2.2 SSE 24 30 13 16 1014.5 1013.9 0.0
19/08:00am 16.2 13.4 13.3 83 1.6 SSE 20 28 11 15 1014.0 1013.4 0.0
19/07:30am 15.5 13.3 13.3 87 1.2 SSE 17 20 9 11 1013.8 1013.2 0.0
19/07:00am 15.7 12.9 13.2 85 1.4 SSE 20 26 11 14 1013.5 1012.9 0.0
19/06:30am 16.6 13.5 13.5 82 1.8 SSE 22 26 12 14 1012.9 1012.4 0.0
19/06:00am 17.1 14.4 13.6 80 2.0 SSE 20 28 11 15 1012.7 1012.2 0.0
19/05:30am 17.1 14.1 13.8 81 1.9 SSE 22 28 12 15 1012.6 1012.1 0.0
19/05:00am 16.8 13.8 13.7 82 1.8 SSE 22 26 12 14 1012.7 1012.2 0.0
19/04:30am 16.6 13.9 13.5 82 1.8 SSE 20 28 11 15 1012.6 1012.1 0.0
19/04:00am 16.7 13.7 13.8 83 1.7 S 22 30 12 16 1012.7 1012.2 0.0
19/03:30am 16.7 13.7 13.6 82 1.8 SSE 22 26 12 14 1012.7 1012.2 0.0
19/03:00am 16.8 13.8 13.7 82 1.8 SSE 22 28 12 15 1012.8 1012.3 0.0
19/02:30am 16.9 13.5 13.8 82 1.8 SSE 24 32 13 17 1012.8 1012.3 0.0
19/02:00am 17.2 13.5 13.9 81 1.9 SSE 26 33 14 18 1013.0 1012.5 0.0
19/01:30am 17.7 14.5 13.2 75 2.5 SSE 22 28 12 15 1013.2 1012.6 0.0
19/01:00am 18.2 14.9 12.9 71 3.0 SSE 22 30 12 16 1013.3 1012.7 0.0
19/12:30am 18.8 15.3 12.3 66 3.6 S 22 32 12 17 1013.6 1013.0 0.0
19/12:00am 19.5 14.7 12.8 65 3.8 SSE 30 37 16 20 1013.4 1012.8 0.0
 
Date/Time
EDT
Temp
°C
App
Temp
°C
Dew
Point
°C
Rel
Hum
%
Delta-T
°C
Wind Press
QNH
hPa
Press
MSL
hPa
Rain since
9am
mm
Dir  Spd
km/h
Gust
km/h
Spd
kts
Gust
kts
18/11:30pm 20.1 16.5 13.1 64 4.0 S 24 32 13 17 1013.7 1013.1 0.0
18/11:00pm 20.6 16.3 13.1 62 4.3 S 28 35 15 19 1013.4 1012.8 0.0
18/10:30pm 21.5 18.7 12.6 57 5.1 S 19 28 10 15 1013.5 1012.9 0.0
18/10:00pm 21.8 20.1 12.6 56 5.3 SSW 13 20 7 11 1013.3 1012.7 0.0
18/09:30pm 21.9 20.1 12.2 54 5.5 SSW 13 15 7 8 1013.2 1012.6 0.0
18/09:00pm 22.0 20.4 11.7 52 5.8 SSW 11 13 6 7 1012.7 1012.2 0.0
18/08:30pm 22.1 21.1 12.4 54 5.5 SSE 9 11 5 6 1012.3 1011.8 0.0
18/08:00pm 22.6 21.6 12.3 52 5.9 SE 9 11 5 6 1012.0 1011.5 0.0
18/07:30pm 22.6 21.7 12.5 53 5.8 SE 9 11 5 6 1012.0 1011.5 0.0
18/07:00pm 22.6 21.9 13.1 55 5.5 SE 9 11 5 6 1012.1 1011.6 0.0
18/06:30pm 22.3 23.1 13.6 58 5.1 SE 2 7 1 4 1012.1 1011.6 0.0
18/06:00pm 22.3 22.2 13.9 59 4.9 S 7 11 4 6 1012.1 1011.6 0.0
18/05:30pm 21.8 21.4 14.2 62 4.5 SSW 9 11 5 6 1012.1 1011.6 0.0
18/05:00pm 21.4 19.1 14.6 65 4.0 SSW 20 26 11 14 1012.2 1011.7 0.0
18/04:30pm 22.7 17.8 13.7 56 5.3 SSW 32 41 17 22 1011.9 1011.4 0.0
18/04:00pm 26.1 18.8 10.3 37 8.9 SW 39 50 21 27 1011.5 1011.0 0.0
18/03:51pm 27.2 21.0 10.0 34 9.6 SW 33 43 18 23 1011.4 1010.9 0.0
18/03:30pm 28.3 24.6 9.6 31 10.5 SW 19 26 10 14 1011.0 1010.5 0.0
18/03:00pm 28.7 26.1 9.4 30 10.8 S 13 24 7 13 1010.7 1010.2 0.0
18/02:30pm 29.6 26.6 9.2 28 11.4 SSW 15 28 8 15 1011.3 1010.8 0.0
18/02:00pm 29.5 25.5 9.1 28 11.4 WSW 20 48 11 26 1011.7 1011.2 0.0
18/01:30pm 28.9 25.5 9.1 29 11.0 SW 17 24 9 13 1011.9 1011.4 0.0
18/01:00pm 29.5 27.6 9.1 28 11.4 S 9 22 5 12 1012.0 1011.5 0.0
18/12:30pm 28.3 27.2 8.6 29 10.9 S 4 9 2 5 1012.0 1011.5 0.0
18/12:00pm 27.4 25.3 8.3 30 10.4 SSW 9 17 5 9 1012.4 1011.9 0.0
18/11:30am 26.7 24.7 8.6 32 9.9 SSW 9 13 5 7 1012.4 1011.9 0.0
18/11:00am 25.1 23.7 9.4 37 8.6 SSE 7 11 4 6 1012.4 1011.9 0.0
18/10:30am 24.8 23.1 9.9 39 8.2 ESE 9 15 5 8 1012.3 1011.8 0.0
18/10:00am 22.2 19.9 10.4 47 6.5 E 13 17 7 9 1012.4 1011.9 0.0
18/09:30am 21.5 19.2 10.6 50 6.0 E 13 19 7 10 1012.4 1011.9 0.0
18/09:00am 20.2 17.2 10.6 54 5.3 ESE 17 20 9 11 1012.1 1011.6 0.0
18/08:30am 18.4 16.6 10.8 61 4.1 SSE 11 13 6 7 1012.1 1011.6 0.0
18/08:00am 17.2 15.7 10.6 65 3.6 SE 9 15 5 8 1011.5 1011.0 0.0
18/07:30am 15.8 13.5 10.6 71 2.8 ESE 13 19 7 10 1010.8 1010.3 0.0
18/07:00am 15.1 12.4 10.3 73 2.5 ESE 15 19 8 10 1010.4 1009.9 0.0
18/06:30am 15.0 12.3 10.2 73 2.5 ESE 15 19 8 10 1010.2 1009.7 0.0
18/06:00am 15.1 12.8 10.5 74 2.4 ESE 13 17 7 9 1010.4 1009.9 0.0
18/05:30am 14.1 12.3 9.3 73 2.5 SE 9 15 5 8 1010.3 1009.8 0.0
18/05:00am 14.7 12.7 10.3 75 2.3 ESE 11 13 6 7 1010.1 1009.6 0.0
18/04:30am 14.4 12.6 9.6 73 2.5 SE 9 11 5 6 1010.4 1009.9 0.0
18/04:00am 14.5 12.0 9.7 73 2.5 SSE 13 15 7 8 1010.6 1010.1 0.0
18/03:30am 14.9 12.3 9.3 69 2.9 SSE 13 15 7 8 1011.1 1010.6 0.0
18/03:00am 15.4 12.8 9.5 68 3.1 SSE 13 17 7 9 1011.2 1010.7 0.0
18/02:30am 15.4 13.2 9.3 67 3.2 SSE 11 15 6 8 1011.4 1010.9 0.0
18/02:00am 15.9 12.9 9.3 65 3.4 S 15 17 8 9 1011.5 1011.0 0.0
18/01:30am 16.6 13.6 9.3 62 3.8 S 15 17 8 9 1011.6 1011.1 0.0
18/01:00am 16.7 14.0 8.9 60 4.0 S 13 15 7 8 1012.0 1011.5 0.0
18/12:30am 17.4 14.9 8.3 55 4.7 SSW 11 13 6 7 1012.0 1011.5 0.0
18/12:00am 18.6 16.5 8.3 51 5.3 SSW 9 11 5 6 1012.0 1011.5 0.0
 
Date/Time
EDT
Temp
°C
App
Temp
°C
Dew
Point
°C
Rel
Hum
%
Delta-T
°C
Wind Press
QNH
hPa
Press
MSL
hPa
Rain since
9am
mm
Dir  Spd
km/h
Gust
km/h
Spd
kts
Gust
kts
17/11:30pm 19.2 16.2 7.9 48 5.8 SW 13 17 7 9 1012.1 1011.6 0.0
17/11:00pm 20.0 17.5 8.0 46 6.2 WSW 11 15 6 8 1012.2 1011.7 0.0
17/10:30pm 20.4 18.1 7.4 43 6.7 W 9 11 5 6 1012.1 1011.6 0.0
17/10:00pm 21.3 19.3 7.2 40 7.3 SW 7 15 4 8 1011.8 1011.3 0.0
17/09:30pm 21.9 20.1 7.3 39 7.6 SSW 6 9 3 5 1011.3 1010.8 0.0
17/09:00pm 22.3 20.2 6.5 36 8.1 SW 7 9 4 5 1011.0 1010.5 0.0
17/08:30pm 24.2 21.9 7.4 34 8.9 SW 9 11 5 6 1011.0 1010.5 0.0
17/08:00pm 26.0 22.6 7.6 31 9.9 WSW 15 17 8 9 1011.0 1010.5 0.0
17/07:30pm 26.9 23.8 7.4 29 10.4 WSW 13 20 7 11 1010.7 1010.2 0.0
17/07:00pm 27.2 24.1 7.1 28 10.7 SW 13 19 7 10 1010.6 1010.1 0.0
17/06:30pm 27.3 23.9 7.7 29 10.6 WSW 15 24 8 13 1010.7 1010.2 0.0
17/06:00pm 27.9 24.5 7.7 28 10.9 WSW 15 26 8 14 1010.8 1010.3 0.0
17/05:30pm 28.1 24.4 7.9 28 11.0 WSW 17 26 9 14 1011.0 1010.5 0.0
17/05:00pm 27.6 23.5 8.0 29 10.7 WSW 19 30 10 16 1011.1 1010.6 0.0
17/04:30pm 28.0 23.7 7.8 28 11.0 WSW 20 28 11 15 1011.2 1010.7 0.0
17/04:00pm 26.9 21.9 7.9 30 10.3 W 24 33 13 18 1011.5 1011.0 0.0
17/03:30pm 27.6 23.0 8.0 29 10.7 WSW 22 35 12 19 1011.6 1011.1 0.0
17/03:00pm 26.8 22.6 8.3 31 10.1 W 20 32 11 17 1011.8 1011.3 0.0
17/02:30pm 26.8 21.9 8.3 31 10.1 W 24 37 13 20 1012.1 1011.6 0.0
17/02:00pm 26.5 21.7 8.9 33 9.7 WNW 24 37 13 20 1012.4 1011.9 0.0
17/01:30pm 25.3 21.1 8.3 34 9.2 WNW 20 30 11 16 1012.6 1012.1 0.0

Other Formats:

Comma delimited format used in spreadsheet applications
http://www.bom.gov.au/fwo/IDV60801/IDV60801.94827.axf

JavaScript Object Notation format (JSON) in row-major order
http://www.bom.gov.au/fwo/IDV60801/IDV60801.94827.json